Time;durP1;ratioP1;P1;durP2;ratioP2;P2;SDS_P1;SDS_P2;PMS_P1;PMS_P2;Temp;Humidity;BMP_temperature;BMP_pressure;BME280_temperature;BME280_humidity;BME280_pressure;Samples;Min_cycle;Max_cycle;Signal;HPM_P1;HPM_P2
2023/07/09 00:00:13;;;;;;;0.13;0.13;;;;;;;;;;1043503;28;20052;-72
2023/07/09 00:00:44;;;;;;;0.17;0.17;;;;;;;;;;1043640;28;20021;-72
2023/07/09 00:01:17;;;;;;;0.00;0.00;;;;;;;;;;1044142;28;20021;-72
2023/07/09 00:01:47;;;;;;;0.20;0.20;;;;;;;;;;1042778;28;20013;-72
2023/07/09 00:02:18;;;;;;;0.05;0.05;;;;;;;;;;1044015;28;20017;-72
2023/07/09 00:02:48;;;;;;;0.38;0.38;;;;;;;;;;1043846;28;20115;-72
2023/07/09 00:03:19;;;;;;;0.45;0.28;;;;;;;;;;1044132;28;20036;-72
2023/07/09 00:03:51;;;;;;;1.10;1.02;;;;;;;;;;1043616;28;20025;-72
2023/07/09 00:04:22;;;;;;;1.13;0.63;;;;;;;;;;1043999;28;20524;-72
2023/07/09 00:04:53;;;;;;;0.00;0.00;;;;;;;;;;1043829;28;20028;-72
2023/07/09 00:05:24;;;;;;;5.88;0.57;;;;;;;;;;1044293;28;20024;-72
2023/07/09 00:05:54;;;;;;;0.13;0.13;;;;;;;;;;1043158;28;20477;-72
2023/07/09 00:06:25;;;;;;;0.30;0.30;;;;;;;;;;1043904;28;20052;-72
2023/07/09 00:06:57;;;;;;;0.00;0.00;;;;;;;;;;1039259;28;20047;-72
2023/07/09 00:07:29;;;;;;;0.00;0.00;;;;;;;;;;1039297;28;20477;-72
2023/07/09 00:08:00;;;;;;;0.00;0.00;;;;;;;;;;1039260;28;20029;-72
2023/07/09 00:08:31;;;;;;;0.25;0.25;;;;;;;;;;1040247;28;20576;-72
2023/07/09 00:09:02;;;;;;;0.20;0.20;;;;;;;;;;1042673;28;20071;-72
2023/07/09 00:09:32;;;;;;;0.10;0.10;;;;;;;;;;1039560;28;20773;-72
2023/07/09 00:10:03;;;;;;;0.47;0.38;;;;;;;;;;1039401;28;20027;-72
2023/07/09 00:10:34;;;;;;;0.32;0.30;;;;;;;;;;1039580;28;20575;-72
2023/07/09 00:11:05;;;;;;;0.00;0.00;;;;;;;;;;1039562;28;20030;-72
2023/07/09 00:11:35;;;;;;;0.00;0.00;;;;;;;;;;1043473;28;20021;-72
2023/07/09 00:12:11;;;;;;;0.00;0.00;;;;;;;;;;1043541;28;20033;-72
2023/07/09 00:12:41;;;;;;;0.00;0.00;;;;;;;;;;1043427;28;20024;-72
2023/07/09 00:13:12;;;;;;;0.00;0.00;;;;;;;;;;1043892;28;20025;-72
2023/07/09 00:13:42;;;;;;;0.00;0.00;;;;;;;;;;1043561;28;20037;-72
2023/07/09 00:14:14;;;;;;;0.28;0.28;;;;;;;;;;1043609;28;20014;-72
2023/07/09 00:14:45;;;;;;;0.00;0.00;;;;;;;;;;1043480;28;20036;-72
2023/07/09 00:15:15;;;;;;;0.10;0.10;;;;;;;;;;1042873;28;20038;-72
2023/07/09 00:15:46;;;;;;;0.00;0.00;;;;;;;;;;1042477;28;20024;-72
2023/07/09 00:16:21;;;;;;;0.40;0.32;;;;;;;;;;1040077;28;20072;-72
2023/07/09 00:16:51;;;;;;;0.75;0.75;;;;;;;;;;1040238;28;20040;-72
2023/07/09 00:17:30;;;;;;;0.20;0.20;;;;;;;;;;1040400;28;20028;-72
2023/07/09 00:18:01;;;;;;;0.30;0.13;;;;;;;;;;1041868;28;20022;-72
2023/07/09 00:18:31;;;;;;;0.08;0.08;;;;;;;;;;1044865;28;20016;-72
2023/07/09 00:19:02;;;;;;;0.55;0.55;;;;;;;;;;1044557;28;20032;-72
2023/07/09 00:19:32;;;;;;;0.30;0.20;;;;;;;;;;1044671;28;20024;-72
2023/07/09 00:20:13;;;;;;;0.38;0.38;;;;;;;;;;1044435;28;20016;-72
2023/07/09 00:20:43;;;;;;;0.55;0.35;;;;;;;;;;1044928;28;20021;-72
2023/07/09 00:21:15;;;;;;;0.30;0.20;;;;;;;;;;1044844;28;20473;-72
2023/07/09 00:21:49;;;;;;;0.10;0.10;;;;;;;;;;1044403;28;20036;-72
2023/07/09 00:22:20;;;;;;;0.00;0.00;;;;;;;;;;1044668;28;20035;-72
2023/07/09 00:22:52;;;;;;;0.20;0.20;;;;;;;;;;1044563;28;20062;-72
2023/07/09 00:23:22;;;;;;;0.13;0.13;;;;;;;;;;1045036;28;20435;-72
2023/07/09 00:23:53;;;;;;;0.98;0.98;;;;;;;;;;1044323;28;20071;-72
2023/07/09 00:24:23;;;;;;;0.40;0.40;;;;;;;;;;1044269;28;20013;-72
2023/07/09 00:24:56;;;;;;;0.45;0.45;;;;;;;;;;1044445;28;20074;-72
2023/07/09 00:25:27;;;;;;;0.00;0.00;;;;;;;;;;1044781;28;20464;-72
2023/07/09 00:25:57;;;;;;;0.20;0.20;;;;;;;;;;1039888;28;20016;-72
2023/07/09 00:26:30;;;;;;;0.10;0.10;;;;;;;;;;1040339;28;20032;-72
2023/07/09 00:27:00;;;;;;;0.10;0.10;;;;;;;;;;1039946;28;20017;-72
2023/07/09 00:27:31;;;;;;;0.00;0.00;;;;;;;;;;1040957;28;20116;-72
2023/07/09 00:28:02;;;;;;;0.08;0.08;;;;;;;;;;1043962;28;20020;-72
2023/07/09 00:28:32;;;;;;;0.40;0.40;;;;;;;;;;1044491;28;20032;-72
2023/07/09 00:29:03;;;;;;;0.40;0.20;;;;;;;;;;1044442;28;20495;-72
2023/07/09 00:29:34;;;;;;;0.00;0.00;;;;;;;;;;1044700;28;20071;-72
2023/07/09 00:30:05;;;;;;;0.00;0.00;;;;;;;;;;1040046;28;20477;-72
2023/07/09 00:30:35;;;;;;;0.00;0.00;;;;;;;;;;1040193;28;20067;-72
2023/07/09 00:31:11;;;;;;;0.00;0.00;;;;;;;;;;1040200;28;20044;-72
2023/07/09 00:31:42;;;;;;;0.20;0.20;;;;;;;;;;1040825;28;20155;-72
2023/07/09 00:32:16;;;;;;;0.47;0.47;;;;;;;;;;1044692;28;20021;-72
2023/07/09 00:32:46;;;;;;;0.25;0.25;;;;;;;;;;1043311;28;20025;-72
2023/07/09 00:33:18;;;;;;;0.55;0.47;;;;;;;;;;1044712;28;20023;-72
2023/07/09 00:33:49;;;;;;;0.00;0.00;;;;;;;;;;1044305;28;20033;-72
2023/07/09 00:34:21;;;;;;;0.30;0.30;;;;;;;;;;1040316;28;20556;-72
2023/07/09 00:34:53;;;;;;;0.10;0.10;;;;;;;;;;1040004;28;20026;-72
2023/07/09 00:35:25;;;;;;;0.00;0.00;;;;;;;;;;1040289;28;20108;-72
2023/07/09 00:35:55;;;;;;;0.28;0.28;;;;;;;;;;1037585;28;20115;-72
2023/07/09 00:36:28;;;;;;;0.05;0.05;;;;;;;;;;1035487;28;20563;-72
2023/07/09 00:36:58;;;;;;;0.00;0.00;;;;;;;;;;1033521;28;20046;-72
2023/07/09 00:37:29;;;;;;;0.47;0.38;;;;;;;;;;1034216;28;20034;-72
2023/07/09 00:38:00;;;;;;;0.40;0.30;;;;;;;;;;1040184;28;20033;-72
2023/07/09 00:38:38;;;;;;;0.10;0.10;;;;;;;;;;1043678;28;20496;-72
2023/07/09 00:39:15;;;;;;;0.25;0.25;;;;;;;;;;1046324;28;20608;-72
2023/07/09 00:39:46;;;;;;;0.08;0.08;;;;;;;;;;1041820;28;20056;-72
2023/07/09 00:40:19;;;;;;;0.00;0.00;;;;;;;;;;1042277;28;20159;-72
2023/07/09 00:41:03;;;;;;;0.17;0.17;;;;;;;;;;1041303;28;20469;-72
2023/07/09 00:41:36;;;;;;;1.13;0.80;;;;;;;;;;1042037;28;20064;-72
2023/07/09 00:42:17;;;;;;;0.50;0.50;;;;;;;;;;1044505;28;20027;-72
2023/07/09 00:42:48;;;;;;;0.00;0.00;;;;;;;;;;1043586;28;20027;-72
2023/07/09 00:43:19;;;;;;;0.22;0.22;;;;;;;;;;1044627;28;20392;-72
2023/07/09 00:43:50;;;;;;;0.00;0.00;;;;;;;;;;1044458;28;20044;-72
2023/07/09 00:44:21;;;;;;;1.27;0.73;;;;;;;;;;1044827;28;20024;-72
2023/07/09 00:44:54;;;;;;;0.17;0.17;;;;;;;;;;1044434;28;20024;-72
2023/07/09 00:45:26;;;;;;;0.00;0.00;;;;;;;;;;1044139;28;20055;-72
2023/07/09 00:46:15;;;;;;;1.38;1.27;;;;;;;;;;1044381;28;20016;-72
2023/07/09 00:46:48;;;;;;;0.10;0.10;;;;;;;;;;1043430;28;20020;-72
2023/07/09 00:47:23;;;;;;;0.52;0.52;;;;;;;;;;1043916;28;20438;-72
2023/07/09 00:47:56;;;;;;;0.00;0.00;;;;;;;;;;1044241;28;20475;-72
2023/07/09 00:48:31;;;;;;;0.15;0.10;;;;;;;;;;1044704;28;20033;-72
2023/07/09 00:49:07;;;;;;;0.00;0.00;;;;;;;;;;1039945;28;20477;-72
2023/07/09 00:49:46;;;;;;;0.13;0.10;;;;;;;;;;1040057;28;20183;-72
2023/07/09 00:50:41;;;;;;;0.00;0.00;;;;;;;;;;1039740;28;20021;-72
2023/07/09 00:51:16;;;;;;;0.00;0.00;;;;;;;;;;1037011;28;20042;-72
2023/07/09 00:51:46;;;;;;;0.00;0.00;;;;;;;;;;1038794;28;20028;-72
2023/07/09 00:52:22;;;;;;;0.00;0.00;;;;;;;;;;1040253;28;20062;-72
2023/07/09 00:52:54;;;;;;;0.55;0.38;;;;;;;;;;1040148;28;20036;-72
2023/07/09 00:53:29;;;;;;;0.25;0.25;;;;;;;;;;1040667;28;20029;-72
2023/07/09 00:54:09;;;;;;;0.40;0.40;;;;;;;;;;1044027;28;20351;-72
2023/07/09 00:54:41;;;;;;;0.00;0.00;;;;;;;;;;1044133;28;20487;-72
2023/07/09 00:55:14;;;;;;;0.08;0.05;;;;;;;;;;1044686;28;20025;-72
2023/07/09 00:55:46;;;;;;;0.20;0.20;;;;;;;;;;1044088;28;20017;-72
2023/07/09 00:56:22;;;;;;;0.73;0.52;;;;;;;;;;1039162;28;20108;-72
2023/07/09 00:56:53;;;;;;;8.85;0.95;;;;;;;;;;1039992;28;20067;-72
2023/07/09 00:57:25;;;;;;;0.15;0.15;;;;;;;;;;1040331;28;20056;-72
2023/07/09 00:57:59;;;;;;;1.73;1.55;;;;;;;;;;1041112;28;20160;-72
2023/07/09 00:58:30;;;;;;;0.00;0.00;;;;;;;;;;1040092;28;20100;-72
2023/07/09 00:59:04;;;;;;;0.10;0.10;;;;;;;;;;1039820;28;20108;-72
2023/07/09 00:59:34;;;;;;;1.17;0.20;;;;;;;;;;1040257;28;20057;-72
2023/07/09 01:00:09;;;;;;;0.10;0.10;;;;;;;;;;1039900;28;20029;-72
2023/07/09 01:00:46;;;;;;;0.00;0.00;;;;;;;;;;1039625;28;20501;-72
2023/07/09 01:01:18;;;;;;;0.25;0.25;;;;;;;;;;1039086;28;20026;-72
2023/07/09 01:01:49;;;;;;;0.03;0.03;;;;;;;;;;1040106;28;20029;-72
2023/07/09 01:02:23;;;;;;;0.00;0.00;;;;;;;;;;1041462;28;20033;-72
2023/07/09 01:02:54;;;;;;;0.10;0.00;;;;;;;;;;1044328;28;20025;-72
2023/07/09 01:03:33;;;;;;;1.40;0.70;;;;;;;;;;1044649;28;20029;-72
2023/07/09 01:04:04;;;;;;;0.10;0.10;;;;;;;;;;1044377;28;20071;-72
2023/07/09 01:04:36;;;;;;;0.10;0.10;;;;;;;;;;1044667;28;20029;-72
2023/07/09 01:05:06;;;;;;;0.05;0.05;;;;;;;;;;1044520;28;20056;-72
2023/07/09 01:05:38;;;;;;;1.17;1.08;;;;;;;;;;1044359;28;20017;-72
2023/07/09 01:06:09;;;;;;;0.00;0.00;;;;;;;;;;1039716;28;20465;-72
2023/07/09 01:06:43;;;;;;;1.40;1.08;;;;;;;;;;1040304;28;20294;-72
2023/07/09 01:07:13;;;;;;;1.45;1.23;;;;;;;;;;1039791;28;20017;-72
2023/07/09 01:07:48;;;;;;;0.20;0.17;;;;;;;;;;1037919;28;20164;-72
2023/07/09 01:08:20;;;;;;;0.25;0.25;;;;;;;;;;1041484;28;20109;-72
2023/07/09 01:08:53;;;;;;;0.10;0.10;;;;;;;;;;1042092;28;20054;-72
2023/07/09 01:09:24;;;;;;;0.43;0.32;;;;;;;;;;1039208;28;20057;-72
2023/07/09 01:09:55;;;;;;;0.00;0.00;;;;;;;;;;1039121;28;20172;-72
2023/07/09 01:10:25;;;;;;;0.20;0.10;;;;;;;;;;1040202;28;20017;-72
2023/07/09 01:10:57;;;;;;;0.10;0.10;;;;;;;;;;1040233;28;20045;-72
2023/07/09 01:11:29;;;;;;;0.20;0.20;;;;;;;;;;1044260;28;20108;-72
2023/07/09 01:12:01;;;;;;;0.45;0.45;;;;;;;;;;1043877;28;20032;-72
2023/07/09 01:12:31;;;;;;;0.10;0.10;;;;;;;;;;1043527;28;20025;-72
2023/07/09 01:13:02;;;;;;;0.28;0.28;;;;;;;;;;1044909;28;20496;-72
2023/07/09 01:13:35;;;;;;;0.55;0.55;;;;;;;;;;1044666;28;20017;-72
2023/07/09 01:14:07;;;;;;;0.35;0.32;;;;;;;;;;1039919;28;20021;-72
2023/07/09 01:14:37;;;;;;;0.17;0.17;;;;;;;;;;1040085;28;20031;-72
2023/07/09 01:15:09;;;;;;;0.00;0.00;;;;;;;;;;1040020;28;20033;-72
2023/07/09 01:15:40;;;;;;;0.00;0.00;;;;;;;;;;1039977;28;20493;-72
2023/07/09 01:16:11;;;;;;;4.57;1.65;;;;;;;;;;1039922;28;20043;-72
2023/07/09 01:16:45;;;;;;;0.00;0.00;;;;;;;;;;1039976;28;20080;-72
2023/07/09 01:17:16;;;;;;;0.10;0.10;;;;;;;;;;1039177;28;20033;-72
2023/07/09 01:17:47;;;;;;;4.55;1.02;;;;;;;;;;1039473;28;20021;-72
2023/07/09 01:18:17;;;;;;;0.68;0.60;;;;;;;;;;1040074;28;20025;-72
2023/07/09 01:18:48;;;;;;;1.58;1.42;;;;;;;;;;1040027;28;20112;-72
2023/07/09 01:19:23;;;;;;;0.00;0.00;;;;;;;;;;1040176;28;20029;-72
2023/07/09 01:19:54;;;;;;;0.73;0.73;;;;;;;;;;1040842;28;20116;-72
2023/07/09 01:20:26;;;;;;;0.20;0.20;;;;;;;;;;1044437;28;20021;-72
2023/07/09 01:21:02;;;;;;;1.38;0.80;;;;;;;;;;1044323;28;20021;-72
2023/07/09 01:21:32;;;;;;;6.55;0.75;;;;;;;;;;1044252;28;20135;-72
2023/07/09 01:22:03;;;;;;;1.92;1.35;;;;;;;;;;1039624;28;20047;-72
2023/07/09 01:22:36;;;;;;;1.30;0.63;;;;;;;;;;1040278;28;20029;-72
2023/07/09 01:23:07;;;;;;;2.47;0.90;;;;;;;;;;1037894;28;20049;-72
2023/07/09 01:23:38;;;;;;;4.03;1.25;;;;;;;;;;1035872;28;20457;-72
2023/07/09 01:24:38;;;;;;;2.97;1.35;;;;;;;;;;1037942;28;20029;-72
2023/07/09 01:25:10;;;;;;;0.40;0.40;;;;;;;;;;1023500;29;20052;-72
2023/07/09 01:25:43;;;;;;;3.10;1.65;;;;;;;;;;1043695;28;20025;-72
2023/07/09 01:26:15;;;;;;;4.47;0.80;;;;;;;;;;1044367;28;20071;-72
2023/07/09 01:26:46;;;;;;;2.03;0.77;;;;;;;;;;1044235;28;20483;-72
2023/07/09 01:27:18;;;;;;;0.65;0.52;;;;;;;;;;1043127;28;20025;-72
2023/07/09 01:27:49;;;;;;;0.25;0.25;;;;;;;;;;1043427;28;20919;-72
2023/07/09 01:28:20;;;;;;;1.40;0.50;;;;;;;;;;1044272;28;20082;-72
2023/07/09 01:28:52;;;;;;;0.20;0.20;;;;;;;;;;1044290;28;20384;-72
2023/07/09 01:29:22;;;;;;;0.95;0.43;;;;;;;;;;1044681;28;20029;-72
2023/07/09 01:29:53;;;;;;;0.10;0.10;;;;;;;;;;1044030;28;20430;-72
2023/07/09 01:30:30;;;;;;;0.47;0.10;;;;;;;;;;1044529;28;20025;-72
2023/07/09 01:31:04;;;;;;;0.22;0.22;;;;;;;;;;1044117;28;20079;-72
2023/07/09 01:31:35;;;;;;;6.03;0.55;;;;;;;;;;1043711;28;20139;-72
2023/07/09 01:32:06;;;;;;;3.70;0.40;;;;;;;;;;1039880;28;20120;-72
2023/07/09 01:32:37;;;;;;;3.28;1.77;;;;;;;;;;1040072;28;20048;-72
2023/07/09 01:33:09;;;;;;;3.92;1.23;;;;;;;;;;1037691;28;20017;-72
2023/07/09 01:33:41;;;;;;;0.43;0.35;;;;;;;;;;1037936;28;20026;-72
2023/07/09 01:34:11;;;;;;;1.45;1.02;;;;;;;;;;1039999;28;20059;-72
2023/07/09 01:34:42;;;;;;;1.33;0.77;;;;;;;;;;1040437;28;20025;-72
2023/07/09 01:35:15;;;;;;;0.00;0.00;;;;;;;;;;1044414;28;20526;-72
2023/07/09 01:35:45;;;;;;;3.70;0.95;;;;;;;;;;1044301;28;20051;-72
2023/07/09 01:36:17;;;;;;;2.28;0.35;;;;;;;;;;1044362;28;20021;-72
2023/07/09 01:36:48;;;;;;;0.85;0.57;;;;;;;;;;1043276;28;20029;-72
2023/07/09 01:37:21;;;;;;;0.57;0.45;;;;;;;;;;1044455;28;20111;-72
2023/07/09 01:37:52;;;;;;;0.10;0.10;;;;;;;;;;1044188;28;20374;-72
2023/07/09 01:38:22;;;;;;;0.57;0.57;;;;;;;;;;1044559;28;20032;-72
2023/07/09 01:38:55;;;;;;;0.35;0.35;;;;;;;;;;1044211;28;20032;-72
2023/07/09 01:39:29;;;;;;;2.60;1.20;;;;;;;;;;1044085;28;20102;-72
2023/07/09 01:40:00;;;;;;;2.45;1.15;;;;;;;;;;1043796;28;20021;-72
2023/07/09 01:40:30;;;;;;;2.85;0.95;;;;;;;;;;1044618;28;20021;-72
2023/07/09 01:41:02;;;;;;;0.60;0.60;;;;;;;;;;1044237;28;20025;-72
2023/07/09 01:41:34;;;;;;;1.85;0.47;;;;;;;;;;1043377;28;20103;-72
2023/07/09 01:42:06;;;;;;;0.10;0.10;;;;;;;;;;1044091;28;20539;-72
2023/07/09 01:42:38;;;;;;;0.30;0.13;;;;;;;;;;1040268;28;21234;-72
2023/07/09 01:43:08;;;;;;;3.08;0.55;;;;;;;;;;1039851;28;20116;-72
2023/07/09 01:43:41;;;;;;;0.05;0.05;;;;;;;;;;1039914;28;20025;-72
2023/07/09 01:44:12;;;;;;;0.68;0.47;;;;;;;;;;1040056;28;20029;-72
2023/07/09 01:44:45;;;;;;;1.42;0.57;;;;;;;;;;1040759;28;20075;-72
2023/07/09 01:45:16;;;;;;;0.10;0.10;;;;;;;;;;1039805;28;20513;-72
2023/07/09 01:45:49;;;;;;;0.63;0.52;;;;;;;;;;1039658;28;20029;-72
2023/07/09 01:46:21;;;;;;;0.13;0.13;;;;;;;;;;1040172;28;20026;-72
2023/07/09 01:46:53;;;;;;;0.40;0.40;;;;;;;;;;1040746;28;20029;-72
2023/07/09 01:47:23;;;;;;;0.65;0.55;;;;;;;;;;1044436;28;20109;-72
2023/07/09 01:47:55;;;;;;;0.55;0.30;;;;;;;;;;1044030;28;20392;-72
2023/07/09 01:48:26;;;;;;;0.45;0.45;;;;;;;;;;1039887;28;20028;-72
2023/07/09 01:48:56;;;;;;;0.00;0.00;;;;;;;;;;1037684;28;20025;-72
2023/07/09 01:49:29;;;;;;;0.00;0.00;;;;;;;;;;1038024;28;20472;-72
2023/07/09 01:50:00;;;;;;;0.85;0.85;;;;;;;;;;1037441;28;20033;-72
2023/07/09 01:50:30;;;;;;;0.10;0.10;;;;;;;;;;1040450;28;20028;-72
2023/07/09 01:51:02;;;;;;;1.38;0.57;;;;;;;;;;1044099;28;20032;-72
2023/07/09 01:51:33;;;;;;;0.80;0.43;;;;;;;;;;1043995;28;20020;-72
2023/07/09 01:52:04;;;;;;;1.75;1.38;;;;;;;;;;1044016;28;20083;-72
2023/07/09 01:52:34;;;;;;;0.75;0.65;;;;;;;;;;1044394;28;20031;-72
2023/07/09 01:53:05;;;;;;;0.10;0.10;;;;;;;;;;1044164;28;20511;-72
2023/07/09 01:53:36;;;;;;;0.35;0.22;;;;;;;;;;1039632;28;20071;-72
2023/07/09 01:54:06;;;;;;;1.17;1.08;;;;;;;;;;1039565;28;20051;-72
2023/07/09 01:54:39;;;;;;;1.00;0.75;;;;;;;;;;1039686;28;20028;-72
2023/07/09 01:55:11;;;;;;;0.00;0.00;;;;;;;;;;1040503;28;20056;-72
2023/07/09 01:55:42;;;;;;;0.00;0.00;;;;;;;;;;1039689;28;20060;-72
2023/07/09 01:56:12;;;;;;;0.10;0.10;;;;;;;;;;1040255;28;20035;-72
2023/07/09 01:56:43;;;;;;;1.00;0.32;;;;;;;;;;1039917;28;20143;-72
2023/07/09 01:57:15;;;;;;;0.10;0.08;;;;;;;;;;1040051;28;20556;-72
2023/07/09 01:57:46;;;;;;;0.28;0.28;;;;;;;;;;1043909;28;20396;-72
2023/07/09 01:58:16;;;;;;;0.00;0.00;;;;;;;;;;1044405;28;20028;-72
2023/07/09 01:58:47;;;;;;;0.40;0.40;;;;;;;;;;1043192;28;20028;-72
2023/07/09 01:59:20;;;;;;;0.08;0.08;;;;;;;;;;1044285;28;20021;-72
2023/07/09 01:59:54;;;;;;;0.08;0.08;;;;;;;;;;1039364;28;20032;-72
2023/07/09 02:00:25;;;;;;;1.35;0.22;;;;;;;;;;1039420;28;20023;-72
2023/07/09 02:00:56;;;;;;;0.10;0.10;;;;;;;;;;1039985;28;20017;-72
2023/07/09 02:01:30;;;;;;;0.32;0.32;;;;;;;;;;1040663;28;20022;-72
2023/07/09 02:02:01;;;;;;;0.32;0.32;;;;;;;;;;1043719;28;20032;-72
2023/07/09 02:02:32;;;;;;;1.02;0.40;;;;;;;;;;1043330;28;20025;-72
2023/07/09 02:03:03;;;;;;;0.10;0.10;;;;;;;;;;1044274;28;20358;-72
2023/07/09 02:03:34;;;;;;;0.40;0.15;;;;;;;;;;1044362;28;20116;-72
2023/07/09 02:04:04;;;;;;;0.08;0.08;;;;;;;;;;1043875;28;20017;-72
2023/07/09 02:04:35;;;;;;;0.52;0.45;;;;;;;;;;1044362;28;20025;-72
2023/07/09 02:05:05;;;;;;;0.50;0.50;;;;;;;;;;1044276;28;20481;-72
2023/07/09 02:05:36;;;;;;;1.17;0.25;;;;;;;;;;1044272;28;20464;-72
2023/07/09 02:06:09;;;;;;;0.47;0.45;;;;;;;;;;1039759;28;20101;-72
2023/07/09 02:06:39;;;;;;;0.85;0.75;;;;;;;;;;1039846;28;20035;-72
2023/07/09 02:07:09;;;;;;;4.68;3.03;;;;;;;;;;1037678;28;20425;-72
2023/07/09 02:07:40;;;;;;;0.63;0.57;;;;;;;;;;1037751;28;20036;-72
2023/07/09 02:08:10;;;;;;;1.40;0.88;;;;;;;;;;1039892;28;20025;-72
2023/07/09 02:08:41;;;;;;;0.20;0.20;;;;;;;;;;1039858;28;20033;-72
2023/07/09 02:09:11;;;;;;;0.00;0.00;;;;;;;;;;1039744;28;20052;-72
2023/07/09 02:09:42;;;;;;;0.00;0.00;;;;;;;;;;1039839;28;20092;-72
2023/07/09 02:10:14;;;;;;;0.00;0.00;;;;;;;;;;1037754;28;20040;-72
2023/07/09 02:10:47;;;;;;;0.85;0.57;;;;;;;;;;1038232;28;20027;-72
2023/07/09 02:11:18;;;;;;;1.52;0.47;;;;;;;;;;1038896;28;20437;-72
2023/07/09 02:11:48;;;;;;;0.08;0.08;;;;;;;;;;1039973;28;20028;-72
2023/07/09 02:12:19;;;;;;;0.60;0.25;;;;;;;;;;1044344;28;20025;-72
2023/07/09 02:12:50;;;;;;;0.43;0.43;;;;;;;;;;1043630;28;20029;-72
2023/07/09 02:13:20;;;;;;;0.10;0.10;;;;;;;;;;1039278;28;20034;-72
2023/07/09 02:13:51;;;;;;;0.40;0.40;;;;;;;;;;1039527;28;20026;-72
2023/07/09 02:14:21;;;;;;;0.17;0.17;;;;;;;;;;1039726;28;20116;-72
2023/07/09 02:14:52;;;;;;;1.75;0.25;;;;;;;;;;1039751;28;20127;-72
2023/07/09 02:15:22;;;;;;;0.43;0.43;;;;;;;;;;1040040;28;20025;-72
2023/07/09 02:15:53;;;;;;;0.17;0.17;;;;;;;;;;1039616;28;20048;-72
2023/07/09 02:16:23;;;;;;;0.30;0.30;;;;;;;;;;1039890;28;20572;-72
2023/07/09 02:16:54;;;;;;;1.27;1.17;;;;;;;;;;1039708;28;20064;-72
2023/07/09 02:17:24;;;;;;;0.10;0.10;;;;;;;;;;1039841;28;20025;-72
2023/07/09 02:17:55;;;;;;;0.80;0.43;;;;;;;;;;1039165;28;20490;-72
2023/07/09 02:18:25;;;;;;;0.65;0.47;;;;;;;;;;1043750;28;20021;-72
2023/07/09 02:18:56;;;;;;;0.82;0.82;;;;;;;;;;1044459;28;20442;-72
2023/07/09 02:19:27;;;;;;;0.00;0.00;;;;;;;;;;1044273;28;20448;-72
2023/07/09 02:19:58;;;;;;;0.17;0.17;;;;;;;;;;1043961;28;20013;-72
2023/07/09 02:20:28;;;;;;;0.32;0.28;;;;;;;;;;1044344;28;20029;-72
2023/07/09 02:20:59;;;;;;;2.85;1.45;;;;;;;;;;1043963;28;20549;-72
2023/07/09 02:21:29;;;;;;;0.00;0.00;;;;;;;;;;1039330;28;20021;-72
2023/07/09 02:22:00;;;;;;;0.50;0.43;;;;;;;;;;1039454;28;20072;-72
2023/07/09 02:22:31;;;;;;;0.13;0.10;;;;;;;;;;1039845;28;20033;-72
2023/07/09 02:23:02;;;;;;;1.45;1.05;;;;;;;;;;1039597;28;20056;-72
2023/07/09 02:23:32;;;;;;;1.35;0.98;;;;;;;;;;1043074;28;20048;-72
2023/07/09 02:24:03;;;;;;;1.20;0.55;;;;;;;;;;1043644;28;20021;-72
2023/07/09 02:24:34;;;;;;;0.20;0.20;;;;;;;;;;1039439;28;20528;-72
2023/07/09 02:25:08;;;;;;;0.75;0.52;;;;;;;;;;1037396;28;20022;-72
2023/07/09 02:25:39;;;;;;;0.38;0.38;;;;;;;;;;1037746;28;20083;-72
2023/07/09 02:26:09;;;;;;;3.28;1.10;;;;;;;;;;1038384;28;20079;-72
2023/07/09 02:26:40;;;;;;;0.57;0.35;;;;;;;;;;1039625;28;20029;-72
2023/07/09 02:27:11;;;;;;;0.00;0.00;;;;;;;;;;1039262;28;20029;-72
2023/07/09 02:27:42;;;;;;;2.03;0.90;;;;;;;;;;1039593;28;20028;-72
2023/07/09 02:28:12;;;;;;;2.85;0.80;;;;;;;;;;1039877;28;20467;-72
2023/07/09 02:28:43;;;;;;;0.75;0.38;;;;;;;;;;1039931;28;20013;-72
2023/07/09 02:29:13;;;;;;;0.15;0.08;;;;;;;;;;1044248;28;20052;-72
2023/07/09 02:29:44;;;;;;;3.95;0.90;;;;;;;;;;1043658;28;20127;-72
2023/07/09 02:30:14;;;;;;;0.75;0.75;;;;;;;;;;1044046;28;20029;-72
2023/07/09 02:30:45;;;;;;;0.15;0.13;;;;;;;;;;1044017;28;20020;-72
2023/07/09 02:31:15;;;;;;;0.05;0.05;;;;;;;;;;1039798;28;20473;-72
2023/07/09 02:31:48;;;;;;;1.33;0.95;;;;;;;;;;1039380;28;20017;-72
2023/07/09 02:32:19;;;;;;;0.75;0.68;;;;;;;;;;1039977;28;20022;-72
2023/07/09 02:32:50;;;;;;;0.88;0.73;;;;;;;;;;1039600;28;20021;-72
2023/07/09 02:33:20;;;;;;;0.47;0.38;;;;;;;;;;1040000;28;20071;-72
2023/07/09 02:33:51;;;;;;;1.92;1.00;;;;;;;;;;1039697;28;20021;-72
2023/07/09 02:34:25;;;;;;;0.85;0.70;;;;;;;;;;1044398;28;20516;-72
2023/07/09 02:34:55;;;;;;;2.30;1.08;;;;;;;;;;1043559;28;20025;-72
2023/07/09 02:35:26;;;;;;;0.82;0.75;;;;;;;;;;1044251;28;20027;-72
2023/07/09 02:35:56;;;;;;;0.10;0.10;;;;;;;;;;1043865;28;20509;-72
2023/07/09 02:36:27;;;;;;;2.13;1.65;;;;;;;;;;1044001;28;20480;-72
2023/07/09 02:36:58;;;;;;;0.15;0.15;;;;;;;;;;1044199;28;20392;-72
2023/07/09 02:37:29;;;;;;;1.90;1.05;;;;;;;;;;1043768;28;20036;-71
2023/07/09 02:37:59;;;;;;;0.70;0.60;;;;;;;;;;1043690;28;20056;-71
2023/07/09 02:38:30;;;;;;;1.65;0.70;;;;;;;;;;1039453;28;20040;-71
2023/07/09 02:39:00;;;;;;;0.55;0.55;;;;;;;;;;1039477;28;20085;-72
2023/07/09 02:39:31;;;;;;;1.83;0.70;;;;;;;;;;1039893;28;20116;-72
2023/07/09 02:40:03;;;;;;;0.47;0.30;;;;;;;;;;1039508;28;20398;-72
2023/07/09 02:40:34;;;;;;;0.10;0.10;;;;;;;;;;1039697;28;20025;-72
2023/07/09 02:41:04;;;;;;;1.35;0.85;;;;;;;;;;1039551;28;20086;-72
2023/07/09 02:41:35;;;;;;;3.10;0.43;;;;;;;;;;1039486;28;20056;-72
2023/07/09 02:42:06;;;;;;;0.57;0.50;;;;;;;;;;1037574;28;20022;-72
2023/07/09 02:42:36;;;;;;;0.20;0.10;;;;;;;;;;1037680;28;20026;-72
2023/07/09 02:43:06;;;;;;;1.55;0.45;;;;;;;;;;1033627;28;20026;-72
2023/07/09 02:43:37;;;;;;;0.10;0.10;;;;;;;;;;1035508;28;20022;-72
2023/07/09 02:44:08;;;;;;;0.20;0.20;;;;;;;;;;1039762;28;20048;-72
2023/07/09 02:44:39;;;;;;;0.13;0.13;;;;;;;;;;1039892;28;20025;-72
2023/07/09 02:45:10;;;;;;;0.10;0.10;;;;;;;;;;1043339;28;20067;-72
2023/07/09 02:45:41;;;;;;;2.83;0.75;;;;;;;;;;1043324;28;20021;-72
2023/07/09 02:46:11;;;;;;;0.00;0.00;;;;;;;;;;1044085;28;20131;-72
2023/07/09 02:46:42;;;;;;;1.98;0.80;;;;;;;;;;1044057;28;20021;-72
2023/07/09 02:47:13;;;;;;;0.15;0.10;;;;;;;;;;1044085;28;20021;-72
2023/07/09 02:47:43;;;;;;;0.05;0.05;;;;;;;;;;1043903;28;20366;-72
2023/07/09 02:48:14;;;;;;;0.25;0.25;;;;;;;;;;1044413;28;20021;-72
2023/07/09 02:48:44;;;;;;;0.35;0.35;;;;;;;;;;1043963;28;20077;-72
2023/07/09 02:49:15;;;;;;;1.48;0.68;;;;;;;;;;1044174;28;20021;-72
2023/07/09 02:49:46;;;;;;;0.25;0.25;;;;;;;;;;1043792;28;20107;-72
2023/07/09 02:50:16;;;;;;;0.20;0.20;;;;;;;;;;1044224;28;20017;-72
2023/07/09 02:50:47;;;;;;;2.92;0.57;;;;;;;;;;1043725;28;20076;-72
2023/07/09 02:51:17;;;;;;;0.20;0.20;;;;;;;;;;1044019;28;20017;-72
2023/07/09 02:51:48;;;;;;;0.00;0.00;;;;;;;;;;1043846;28;20048;-72
2023/07/09 02:52:18;;;;;;;0.50;0.35;;;;;;;;;;1044179;28;20474;-72
2023/07/09 02:52:49;;;;;;;3.63;0.40;;;;;;;;;;1044125;28;20021;-72
2023/07/09 02:53:19;;;;;;;0.00;0.00;;;;;;;;;;1044234;28;20029;-72
2023/07/09 02:53:50;;;;;;;0.03;0.03;;;;;;;;;;1043786;28;20028;-72
2023/07/09 02:54:20;;;;;;;0.10;0.10;;;;;;;;;;1043747;28;20140;-72
2023/07/09 02:54:51;;;;;;;1.55;0.45;;;;;;;;;;1044143;28;20021;-72
2023/07/09 02:55:21;;;;;;;1.13;0.30;;;;;;;;;;1044138;28;20040;-72
2023/07/09 02:55:52;;;;;;;0.50;0.47;;;;;;;;;;1039267;28;20071;-72
2023/07/09 02:56:22;;;;;;;2.08;0.52;;;;;;;;;;1039724;28;20357;-72
2023/07/09 02:56:53;;;;;;;1.38;0.65;;;;;;;;;;1039507;28;20112;-72
2023/07/09 02:57:23;;;;;;;0.88;0.73;;;;;;;;;;1039775;28;20037;-72
2023/07/09 02:57:54;;;;;;;0.20;0.20;;;;;;;;;;1039437;28;20075;-72
2023/07/09 02:58:24;;;;;;;0.25;0.25;;;;;;;;;;1044249;28;20024;-72
2023/07/09 02:58:55;;;;;;;0.10;0.10;;;;;;;;;;1043928;28;20025;-72
2023/07/09 02:59:26;;;;;;;0.90;0.73;;;;;;;;;;1044469;28;20427;-72
2023/07/09 02:59:57;;;;;;;0.20;0.10;;;;;;;;;;1043749;28;20023;-73
2023/07/09 03:00:28;;;;;;;0.75;0.50;;;;;;;;;;1044185;28;20396;-73
2023/07/09 03:00:59;;;;;;;0.65;0.57;;;;;;;;;;1043894;28;20017;-72
2023/07/09 03:01:29;;;;;;;0.10;0.10;;;;;;;;;;1044077;28;20021;-72
2023/07/09 03:02:00;;;;;;;1.10;0.70;;;;;;;;;;1043488;28;20039;-72
2023/07/09 03:02:31;;;;;;;0.30;0.17;;;;;;;;;;1044333;28;20027;-72
2023/07/09 03:03:01;;;;;;;0.30;0.30;;;;;;;;;;1040410;28;20016;-72
2023/07/09 03:03:32;;;;;;;0.05;0.05;;;;;;;;;;1036588;28;20021;-72
2023/07/09 03:04:03;;;;;;;0.80;0.80;;;;;;;;;;1037463;28;20021;-72
2023/07/09 03:04:33;;;;;;;2.85;1.90;;;;;;;;;;1037661;28;20572;-72
2023/07/09 03:05:04;;;;;;;1.02;0.30;;;;;;;;;;1039669;28;20022;-72
2023/07/09 03:05:34;;;;;;;0.05;0.05;;;;;;;;;;1044105;28;20031;-72
2023/07/09 03:06:05;;;;;;;0.20;0.20;;;;;;;;;;1043878;28;20515;-72
2023/07/09 03:06:36;;;;;;;1.52;0.95;;;;;;;;;;1043902;28;20025;-72
2023/07/09 03:07:07;;;;;;;0.32;0.22;;;;;;;;;;1043901;28;20017;-72
2023/07/09 03:07:37;;;;;;;0.15;0.15;;;;;;;;;;1039207;28;20366;-72
2023/07/09 03:08:08;;;;;;;0.60;0.52;;;;;;;;;;1039852;28;20081;-72
2023/07/09 03:08:38;;;;;;;0.10;0.10;;;;;;;;;;1039726;28;20117;-72
2023/07/09 03:09:09;;;;;;;0.32;0.32;;;;;;;;;;1039649;28;20021;-72
2023/07/09 03:09:40;;;;;;;0.65;0.45;;;;;;;;;;1038513;28;20029;-72
2023/07/09 03:10:10;;;;;;;0.28;0.28;;;;;;;;;;1039989;28;20022;-72